Time,TemperatureF,DewpointF,PressureIn,WindDirection,WindDirectionDegrees,WindSpeedMPH,WindSpeedGustMPH,Humidity,HourlyPrecipIn,Conditions,Clouds,dailyrainin,SoftwareType,DateUTC
2013-02-06 00:02:00,13.0,9.0,29.97,SE,135,0.0,1.0,83,0.00,,,0.00,,2013-02-06 05:02:00,
2013-02-06 00:12:00,13.0,9.0,29.97,SE,135,0.0,1.0,83,0.00,,,0.00,,2013-02-06 05:12:00,
2013-02-06 00:22:00,12.0,8.0,29.97,SE,135,0.0,0.0,83,0.00,,,0.00,,2013-02-06 05:22:00,
2013-02-06 00:32:00,13.0,9.0,29.96,ENE,68,0.0,2.0,84,0.00,,,0.00,,2013-02-06 05:32:00,
2013-02-06 00:41:00,13.0,9.0,29.96,ENE,68,0.0,2.0,84,0.00,,,0.00,,2013-02-06 05:41:00,
2013-02-06 00:53:00,14.0,10.0,29.96,ENE,68,2.0,3.0,85,0.00,,,0.00,,2013-02-06 05:53:00,
2013-02-06 01:01:00,14.0,10.0,29.96,ENE,68,2.0,3.0,85,0.00,,,0.00,,2013-02-06 06:01:00,
2013-02-06 01:11:00,14.0,10.0,29.96,ENE,68,2.0,3.0,85,0.00,,,0.00,,2013-02-06 06:11:00,
2013-02-06 01:22:00,16.0,12.0,29.96,ENE,68,1.0,2.0,84,0.00,,,0.00,,2013-02-06 06:22:00,
2013-02-06 01:32:00,16.0,12.0,29.96,ENE,68,1.0,2.0,83,0.00,,,0.00,,2013-02-06 06:32:00,
2013-02-06 01:42:00,16.0,12.0,29.96,ENE,68,1.0,2.0,83,0.00,,,0.00,,2013-02-06 06:42:00,
2013-02-06 01:52:00,16.0,12.0,29.95,ENE,68,5.0,5.0,84,0.00,,,0.00,,2013-02-06 06:52:00,
2013-02-06 02:01:00,20.0,16.0,29.95,NE,45,5.0,5.0,83,0.00,,,0.00,,2013-02-06 07:01:00,
2013-02-06 02:11:00,20.0,16.0,29.95,NE,45,5.0,5.0,83,0.00,,,0.00,,2013-02-06 07:11:00,
2013-02-06 02:22:00,21.0,16.0,29.94,East,90,5.0,6.0,81,0.00,,,0.00,,2013-02-06 07:22:00,
2013-02-06 02:32:00,22.0,17.0,29.94,ENE,68,3.0,5.0,80,0.00,,,0.00,,2013-02-06 07:32:00,
2013-02-06 02:42:00,22.0,17.0,29.94,ENE,68,3.0,5.0,80,0.00,,,0.00,,2013-02-06 07:42:00,
2013-02-06 02:52:00,23.0,17.0,29.94,ENE,68,3.0,6.0,79,0.00,,,0.00,,2013-02-06 07:52:00,
2013-02-06 03:01:00,23.0,17.0,29.93,ENE,68,5.0,6.0,77,0.00,,,0.00,,2013-02-06 08:01:00,
2013-02-06 03:11:00,23.0,17.0,29.93,ENE,68,5.0,6.0,77,0.00,,,0.00,,2013-02-06 08:11:00,
2013-02-06 03:21:00,23.0,17.0,29.93,ENE,68,5.0,6.0,77,0.00,,,0.00,,2013-02-06 08:21:00,
2013-02-06 03:32:00,23.0,17.0,29.94,ENE,68,2.0,5.0,77,0.00,,,0.00,,2013-02-06 08:32:00,
2013-02-06 03:42:00,23.0,17.0,29.94,ENE,68,2.0,5.0,77,0.00,,,0.00,,2013-02-06 08:42:00,
2013-02-06 03:53:00,23.0,17.0,29.93,ENE,68,3.0,6.0,77,0.00,,,0.00,,2013-02-06 08:53:00,
2013-02-06 04:02:00,23.0,17.0,29.93,East,90,3.0,6.0,78,0.00,,,0.00,,2013-02-06 09:02:00,
2013-02-06 04:11:00,23.0,17.0,29.93,East,90,3.0,6.0,78,0.00,,,0.00,,2013-02-06 09:11:00,
2013-02-06 04:21:00,23.0,18.0,29.92,East,90,3.0,5.0,80,0.00,,,0.00,,2013-02-06 09:21:00,
2013-02-06 04:32:00,24.0,19.0,29.92,ENE,68,2.0,3.0,81,0.00,,,0.00,,2013-02-06 09:32:00,
2013-02-06 04:42:00,24.0,19.0,29.92,ENE,68,2.0,3.0,81,0.00,,,0.00,,2013-02-06 09:42:00,
2013-02-06 04:52:00,24.0,20.0,29.92,ENE,68,6.0,6.0,83,0.00,,,0.00,,2013-02-06 09:52:00,
2013-02-06 05:01:00,25.0,21.0,29.93,East,90,3.0,5.0,83,0.00,,,0.00,,2013-02-06 10:01:00,
2013-02-06 05:11:00,25.0,21.0,29.93,East,90,3.0,5.0,83,0.00,,,0.00,,2013-02-06 10:11:00,
2013-02-06 05:21:00,25.0,21.0,29.93,ENE,68,2.0,5.0,84,0.00,,,0.00,,2013-02-06 10:21:00,
2013-02-06 05:31:00,24.0,20.0,29.93,North,0,2.0,3.0,83,0.00,,,0.00,,2013-02-06 10:31:00,
2013-02-06 05:42:00,24.0,20.0,29.93,North,0,2.0,3.0,83,0.00,,,0.00,,2013-02-06 10:42:00,
2013-02-06 05:52:00,24.0,20.0,29.93,NE,45,2.0,3.0,84,0.00,,,0.00,,2013-02-06 10:52:00,
2013-02-06 06:01:00,24.0,20.0,29.93,ENE,68,5.0,6.0,84,0.00,,,0.00,,2013-02-06 11:01:00,
2013-02-06 06:11:00,24.0,20.0,29.93,ENE,68,5.0,6.0,84,0.00,,,0.00,,2013-02-06 11:11:00,
2013-02-06 06:22:00,24.0,20.0,29.93,NE,45,3.0,3.0,85,0.00,,,0.00,,2013-02-06 11:22:00,
2013-02-06 06:32:00,24.0,20.0,29.93,NNE,23,3.0,3.0,84,0.00,,,0.00,,2013-02-06 11:32:00,
2013-02-06 06:42:00,24.0,20.0,29.93,NNE,23,3.0,3.0,84,0.00,,,0.00,,2013-02-06 11:42:00,
2013-02-06 06:53:00,24.0,20.0,29.93,ENE,68,2.0,3.0,83,0.00,,,0.00,,2013-02-06 11:53:00,
2013-02-06 07:02:00,24.0,19.0,29.93,NNE,23,1.0,2.0,82,0.00,,,0.00,,2013-02-06 12:02:00,
2013-02-06 07:12:00,24.0,19.0,29.93,NNE,23,1.0,2.0,82,0.00,,,0.00,,2013-02-06 12:12:00,
2013-02-06 07:22:00,24.0,19.0,29.94,NNE,23,1.0,3.0,81,0.00,,,0.00,,2013-02-06 12:22:00,
2013-02-06 07:32:00,24.0,19.0,29.94,NE,45,2.0,5.0,81,0.00,,,0.00,,2013-02-06 12:32:00,
2013-02-06 07:42:00,24.0,19.0,29.94,NE,45,2.0,5.0,81,0.00,,,0.00,,2013-02-06 12:42:00,
2013-02-06 07:52:00,24.0,18.0,29.94,East,90,1.0,3.0,79,0.00,,,0.00,,2013-02-06 12:52:00,
2013-02-06 08:01:00,24.0,18.0,29.95,NNE,23,1.0,2.0,79,0.00,,,0.00,,2013-02-06 13:01:00,
2013-02-06 08:12:00,24.0,18.0,29.95,NNE,23,1.0,2.0,79,0.00,,,0.00,,2013-02-06 13:12:00,
2013-02-06 08:22:00,24.0,18.0,29.95,NNE,23,1.0,3.0,79,0.00,,,0.00,,2013-02-06 13:22:00,
2013-02-06 08:32:00,24.0,19.0,29.94,ENE,68,3.0,6.0,80,0.00,,,0.00,,2013-02-06 13:32:00,
2013-02-06 08:42:00,24.0,19.0,29.94,ENE,68,3.0,6.0,80,0.00,,,0.00,,2013-02-06 13:42:00,
2013-02-06 08:52:00,24.0,19.0,29.94,NE,45,5.0,5.0,80,0.00,,,0.00,,2013-02-06 13:52:00,
2013-02-06 09:02:00,24.0,19.0,29.94,NE,45,2.0,3.0,81,0.00,,,0.00,,2013-02-06 14:02:00,
2013-02-06 09:11:00,25.0,20.0,29.94,ENE,68,3.0,5.0,82,0.00,,,0.00,,2013-02-06 14:11:00,
2013-02-06 09:22:00,25.0,20.0,29.94,ENE,68,3.0,5.0,82,0.00,,,0.00,,2013-02-06 14:22:00,
2013-02-06 09:32:00,25.0,21.0,29.94,North,0,1.0,3.0,84,0.00,,,0.00,,2013-02-06 14:32:00,
2013-02-06 09:42:00,26.0,22.0,29.94,NNW,338,1.0,3.0,84,0.00,,,0.00,,2013-02-06 14:42:00,
2013-02-06 09:52:00,26.0,22.0,29.94,NNW,338,1.0,3.0,84,0.00,,,0.00,,2013-02-06 14:52:00,
2013-02-06 10:02:00,26.0,22.0,29.94,North,0,0.0,2.0,85,0.00,,,0.00,,2013-02-06 15:02:00,
2013-02-06 10:11:00,28.0,24.0,29.95,NNW,338,2.0,3.0,84,0.00,,,0.00,,2013-02-06 15:11:00,
2013-02-06 10:21:00,28.0,24.0,29.95,NNW,338,2.0,3.0,84,0.00,,,0.00,,2013-02-06 15:21:00,
2013-02-06 10:31:00,29.0,25.0,29.94,North,0,0.0,2.0,84,0.00,,,0.00,,2013-02-06 15:31:00,
2013-02-06 10:42:00,29.0,25.0,29.93,WSW,248,2.0,2.0,84,0.00,,,0.00,,2013-02-06 15:42:00,
2013-02-06 10:52:00,29.0,25.0,29.93,WSW,248,2.0,2.0,84,0.00,,,0.00,,2013-02-06 15:52:00,
2013-02-06 11:01:00,30.0,26.0,29.92,West,270,1.0,1.0,84,0.00,,,0.00,,2013-02-06 16:01:00,
2013-02-06 11:11:00,30.0,26.0,29.92,West,270,1.0,1.0,84,0.00,,,0.00,,2013-02-06 16:11:00,
2013-02-06 11:21:00,31.0,26.0,29.92,West,270,1.0,2.0,83,0.00,,,0.00,,2013-02-06 16:21:00,
2013-02-06 11:32:00,32.0,27.0,29.91,SW,225,2.0,3.0,83,0.00,,,0.00,,2013-02-06 16:32:00,
2013-02-06 11:42:00,32.0,27.0,29.91,SW,225,2.0,3.0,83,0.00,,,0.00,,2013-02-06 16:42:00,
2013-02-06 11:52:00,33.0,28.0,29.91,WNW,293,2.0,3.0,81,0.00,,,0.00,,2013-02-06 16:52:00,
2013-02-06 12:02:00,33.0,28.0,29.91,WSW,248,5.0,6.0,80,0.00,,,0.01,,2013-02-06 17:02:00,
2013-02-06 12:11:00,33.0,28.0,29.91,West,270,5.0,9.0,81,0.00,,,0.01,,2013-02-06 17:11:00,
2013-02-06 12:22:00,33.0,28.0,29.91,West,270,5.0,9.0,81,0.00,,,0.01,,2013-02-06 17:22:00,
2013-02-06 12:32:00,34.0,28.0,29.90,SW,225,6.0,9.0,77,0.00,,,0.01,,2013-02-06 17:32:00,
2013-02-06 12:42:00,35.0,29.0,29.89,WSW,248,5.0,6.0,78,0.00,,,0.01,,2013-02-06 17:42:00,
2013-02-06 12:52:00,35.0,29.0,29.89,WSW,248,5.0,6.0,78,0.00,,,0.01,,2013-02-06 17:52:00,
2013-02-06 13:02:00,35.0,28.0,29.89,West,270,5.0,8.0,76,0.00,,,0.01,,2013-02-06 18:02:00,
2013-02-06 13:11:00,36.0,29.0,29.88,West,270,5.0,8.0,75,0.00,,,0.01,,2013-02-06 18:11:00,
2013-02-06 13:23:00,36.0,29.0,29.88,West,270,5.0,8.0,75,0.00,,,0.01,,2013-02-06 18:23:00,
2013-02-06 13:32:00,36.0,28.0,29.88,WSW,248,6.0,6.0,73,0.00,,,0.01,,2013-02-06 18:32:00,
2013-02-06 13:42:00,36.0,28.0,29.88,WSW,248,6.0,6.0,73,0.00,,,0.01,,2013-02-06 18:42:00,
2013-02-06 13:52:00,36.0,28.0,29.88,WSW,248,6.0,7.0,73,0.00,,,0.01,,2013-02-06 18:52:00,
2013-02-06 14:02:00,36.0,29.0,29.88,West,270,2.0,3.0,74,0.00,,,0.01,,2013-02-06 19:02:00,
2013-02-06 14:11:00,36.0,29.0,29.88,West,270,2.0,3.0,74,0.00,,,0.01,,2013-02-06 19:11:00,
2013-02-06 14:21:00,37.0,27.0,29.89,WSW,248,5.0,7.0,68,0.00,,,0.02,,2013-02-06 19:21:00,
2013-02-06 14:32:00,36.0,27.0,29.89,WSW,248,6.0,7.0,69,0.01,,,0.02,,2013-02-06 19:32:00,
2013-02-06 14:42:00,36.0,27.0,29.89,WSW,248,6.0,7.0,69,0.01,,,0.02,,2013-02-06 19:42:00,
2013-02-06 14:52:00,37.0,28.0,29.89,WSW,248,1.0,6.0,69,0.01,,,0.03,,2013-02-06 19:52:00,
2013-02-06 15:01:00,37.0,26.0,29.90,West,270,5.0,6.0,63,0.01,,,0.03,,2013-02-06 20:01:00,
2013-02-06 15:11:00,37.0,26.0,29.90,NW,315,6.0,9.0,63,0.01,,,0.04,,2013-02-06 20:11:00,
2013-02-06 15:21:00,37.0,26.0,29.90,NW,315,6.0,9.0,63,0.01,,,0.04,,2013-02-06 20:21:00,
2013-02-06 15:32:00,38.0,25.0,29.91,West,270,3.0,5.0,59,0.01,,,0.05,,2013-02-06 20:32:00,
2013-02-06 15:42:00,38.0,25.0,29.91,West,270,3.0,5.0,59,0.01,,,0.05,,2013-02-06 20:42:00,
2013-02-06 15:52:00,37.0,24.0,29.91,NW,315,8.0,12.0,59,0.01,,,0.05,,2013-02-06 20:52:00,
2013-02-06 16:02:00,36.0,24.0,29.92,NW,315,2.0,3.0,61,0.01,,,0.05,,2013-02-06 21:02:00,
2013-02-06 16:11:00,36.0,24.0,29.92,NW,315,2.0,3.0,61,0.01,,,0.05,,2013-02-06 21:11:00,
2013-02-06 16:21:00,35.0,24.0,29.93,NNW,338,2.0,5.0,63,0.02,,,0.06,,2013-02-06 21:21:00,
2013-02-06 16:32:00,34.0,23.0,29.93,NW,315,1.0,3.0,63,0.01,,,0.06,,2013-02-06 21:32:00,
2013-02-06 16:42:00,34.0,23.0,29.93,NW,315,1.0,3.0,63,0.01,,,0.06,,2013-02-06 21:42:00,
2013-02-06 16:52:00,34.0,23.0,29.93,NW,315,2.0,5.0,64,0.01,,,0.06,,2013-02-06 21:52:00,
2013-02-06 17:01:00,33.0,23.0,29.95,NW,315,0.0,0.0,66,0.01,,,0.07,,2013-02-06 22:01:00,
2013-02-06 17:11:00,33.0,23.0,29.95,NW,315,0.0,0.0,66,0.01,,,0.07,,2013-02-06 22:11:00,
2013-02-06 17:21:00,32.0,23.0,29.96,NW,315,3.0,8.0,68,0.00,,,0.07,,2013-02-06 22:21:00,
2013-02-06 17:32:00,32.0,22.0,29.97,NNW,338,3.0,5.0,66,0.00,,,0.07,,2013-02-06 22:32:00,
2013-02-06 17:42:00,32.0,22.0,29.97,NNW,338,3.0,5.0,66,0.00,,,0.07,,2013-02-06 22:42:00,
2013-02-06 17:52:00,32.0,22.0,29.98,NW,315,3.0,5.0,65,0.00,,,0.07,,2013-02-06 22:52:00,
2013-02-06 18:01:00,32.0,22.0,30.00,NW,315,9.0,12.0,65,0.00,,,0.07,,2013-02-06 23:01:00,
2013-02-06 18:11:00,32.0,22.0,30.00,NW,315,9.0,12.0,65,0.00,,,0.07,,2013-02-06 23:11:00,
2013-02-06 18:21:00,31.0,21.0,30.00,NNW,338,3.0,5.0,65,0.00,,,0.07,,2013-02-06 23:21:00,
2013-02-06 18:32:00,31.0,20.0,30.02,WNW,293,5.0,9.0,63,0.00,,,0.07,,2013-02-06 23:32:00,
2013-02-06 18:42:00,31.0,20.0,30.02,WNW,293,5.0,9.0,63,0.00,,,0.07,,2013-02-06 23:42:00,
2013-02-06 18:52:00,30.0,17.0,30.03,NW,315,2.0,3.0,57,0.00,,,0.07,,2013-02-06 23:52:00,
2013-02-06 19:02:00,30.0,16.0,30.03,NNW,338,3.0,3.0,56,0.00,,,0.07,,2013-02-07 00:02:00,
2013-02-06 19:11:00,30.0,16.0,30.03,NNW,338,3.0,3.0,56,0.00,,,0.07,,2013-02-07 00:11:00,
2013-02-06 19:21:00,29.0,13.0,30.05,NNW,338,6.0,9.0,51,0.00,,,0.07,,2013-02-07 00:21:00,
2013-02-06 19:32:00,29.0,13.0,30.06,NW,315,10.0,14.0,50,0.00,,,0.07,,2013-02-07 00:32:00,
2013-02-06 19:42:00,29.0,13.0,30.06,NW,315,10.0,14.0,50,0.00,,,0.07,,2013-02-07 00:42:00,
2013-02-06 19:52:00,27.0,10.0,30.08,WNW,293,5.0,7.0,49,0.00,,,0.07,,2013-02-07 00:52:00,
2013-02-06 20:01:00,27.0,9.0,30.09,North,0,9.0,12.0,47,0.00,,,0.07,,2013-02-07 01:01:00,
2013-02-06 20:11:00,27.0,9.0,30.09,North,0,9.0,12.0,47,0.00,,,0.07,,2013-02-07 01:11:00,
2013-02-06 20:21:00,26.0,8.0,30.10,NW,315,7.0,10.0,46,0.00,,,0.07,,2013-02-07 01:21:00,
2013-02-06 20:32:00,25.0,6.0,30.10,NNW,338,7.0,10.0,44,0.00,,,0.07,,2013-02-07 01:32:00,
2013-02-06 20:42:00,25.0,6.0,30.10,NNW,338,7.0,10.0,44,0.00,,,0.07,,2013-02-07 01:42:00,
2013-02-06 20:52:00,25.0,5.0,30.12,NNW,338,5.0,10.0,42,0.00,,,0.07,,2013-02-07 01:52:00,
2013-02-06 21:01:00,24.0,3.0,30.12,North,0,2.0,5.0,40,0.00,,,0.07,,2013-02-07 02:01:00,
2013-02-06 21:11:00,24.0,3.0,30.12,North,0,2.0,5.0,40,0.00,,,0.07,,2013-02-07 02:11:00,
2013-02-06 21:21:00,24.0,2.0,30.13,NW,315,8.0,13.0,38,0.00,,,0.07,,2013-02-07 02:21:00,
2013-02-06 21:32:00,23.0,1.0,30.14,NNW,338,9.0,17.0,38,0.00,,,0.07,,2013-02-07 02:32:00,
2013-02-06 21:42:00,23.0,1.0,30.14,NNW,338,9.0,17.0,38,0.00,,,0.07,,2013-02-07 02:42:00,
2013-02-06 21:51:00,23.0,1.0,30.14,NNW,338,9.0,17.0,38,0.00,,,0.07,,2013-02-07 02:51:00,
2013-02-06 22:02:00,22.0,0.0,30.16,NW,315,2.0,3.0,38,0.00,,,0.07,,2013-02-07 03:02:00,
2013-02-06 22:11:00,22.0,0.0,30.16,NW,315,6.0,8.0,38,0.00,,,0.07,,2013-02-07 03:11:00,
2013-02-06 22:21:00,22.0,0.0,30.16,NW,315,6.0,8.0,38,0.00,,,0.07,,2013-02-07 03:21:00,
2013-02-06 22:31:00,21.0,-1.0,30.18,NNW,338,3.0,6.0,37,0.00,,,0.07,,2013-02-07 03:31:00,
2013-02-06 22:42:00,21.0,-1.0,30.18,NNW,338,3.0,6.0,37,0.00,,,0.07,,2013-02-07 03:42:00,
2013-02-06 22:52:00,21.0,-2.0,30.18,North,0,3.0,8.0,36,0.00,,,0.07,,2013-02-07 03:52:00,
2013-02-06 23:01:00,20.0,-4.0,30.19,NNW,338,6.0,14.0,34,0.00,,,0.07,,2013-02-07 04:01:00,
2013-02-06 23:11:00,20.0,-4.0,30.19,NNW,338,6.0,14.0,34,0.00,,,0.07,,2013-02-07 04:11:00,
2013-02-06 23:22:00,19.0,-4.0,30.20,NNW,338,3.0,8.0,35,0.00,,,0.07,,2013-02-07 04:22:00,
2013-02-06 23:32:00,19.0,-2.0,30.21,NNE,23,2.0,3.0,38,0.00,,,0.07,,2013-02-07 04:32:00,
2013-02-06 23:42:00,19.0,-2.0,30.21,NNE,23,2.0,3.0,38,0.00,,,0.07,,2013-02-07 04:42:00,
2013-02-06 23:53:00,18.0,-2.0,30.22,NW,315,5.0,6.0,40,0.00,,,0.07,,2013-02-07 04:53:00,